sensor_id;sensor_type;location;lat;lon;timestamp;pressure;altitude;pressure_sealevel;temperature;humidity
65534;BME280;53640;55.838;37.184;2022-11-15T00:00:10;99713.47;;;-1.54;39.91
65534;BME280;53640;55.838;37.184;2022-11-15T00:02:55;99828.03;;;-0.86;40.52
65534;BME280;53640;55.838;37.184;2022-11-15T00:05:40;99813.84;;;-0.96;40.58
65534;BME280;53640;55.838;37.184;2022-11-15T00:08:29;99822.66;;;-0.96;40.58
65534;BME280;53640;55.838;37.184;2022-11-15T00:11:14;99762.47;;;-1.37;40.48
65534;BME280;53640;55.838;37.184;2022-11-15T00:13:59;99783.94;;;-1.19;40.76
65534;BME280;53640;55.838;37.184;2022-11-15T00:16:47;99810.75;;;-1.01;40.34
65534;BME280;53640;55.838;37.184;2022-11-15T00:19:32;99775.66;;;-1.26;40.83
65534;BME280;53640;55.838;37.184;2022-11-15T00:22:17;99805.69;;;-1.04;40.47
65534;BME280;53640;55.838;37.184;2022-11-15T00:25:02;99786.34;;;-1.16;40.38
65534;BME280;53640;55.838;37.184;2022-11-15T00:27:47;99775.84;;;-1.18;40.43
65534;BME280;53640;55.838;37.184;2022-11-15T00:30:32;99766.88;;;-1.17;40.45
65534;BME280;53640;55.838;37.184;2022-11-15T00:33:17;99777.00;;;-1.11;40.47
65534;BME280;53640;55.838;37.184;2022-11-15T00:36:04;99747.84;;;-1.22;40.16
65534;BME280;53640;55.838;37.184;2022-11-15T00:38:50;99642.88;;;-1.87;40.12
65534;BME280;53640;55.838;37.184;2022-11-15T00:41:35;99773.41;;;-1.00;40.04
65534;BME280;53640;55.838;37.184;2022-11-15T00:44:20;99796.81;;;-0.84;39.57
65534;BME280;53640;55.838;37.184;2022-11-15T00:47:05;99776.31;;;-1.03;39.59
65534;BME280;53640;55.838;37.184;2022-11-15T00:49:50;99787.13;;;-0.95;39.49
65534;BME280;53640;55.838;37.184;2022-11-15T00:52:35;99718.88;;;-1.35;39.52
65534;BME280;53640;55.838;37.184;2022-11-15T00:55:20;99712.84;;;-1.37;39.49
65534;BME280;53640;55.838;37.184;2022-11-15T00:58:05;99750.09;;;-1.17;39.41
65534;BME280;53640;55.838;37.184;2022-11-15T01:00:50;99750.00;;;-1.16;39.52
65534;BME280;53640;55.838;37.184;2022-11-15T01:03:37;99738.78;;;-1.19;39.43
65534;BME280;53640;55.838;37.184;2022-11-15T01:06:22;99750.28;;;-1.09;39.66
65534;BME280;53640;55.838;37.184;2022-11-15T01:09:07;99661.81;;;-1.71;39.87
65534;BME280;53640;55.838;37.184;2022-11-15T01:11:52;99753.22;;;-1.12;39.43
65534;BME280;53640;55.838;37.184;2022-11-15T01:14:36;99751.25;;;-1.10;39.49
65534;BME280;53640;55.838;37.184;2022-11-15T01:17:21;99681.47;;;-1.52;39.62
65534;BME280;53640;55.838;37.184;2022-11-15T01:20:06;99748.19;;;-1.15;39.62
65534;BME280;53640;55.838;37.184;2022-11-15T01:22:51;99721.56;;;-1.25;39.72
65534;BME280;53640;55.838;37.184;2022-11-15T01:25:36;99748.03;;;-1.14;40.02
65534;BME280;53640;55.838;37.184;2022-11-15T01:28:21;99741.22;;;-1.06;39.55
65534;BME280;53640;55.838;37.184;2022-11-15T01:31:13;99742.47;;;-1.11;39.73
65534;BME280;53640;55.838;37.184;2022-11-15T01:33:59;99705.03;;;-1.38;39.90
65534;BME280;53640;55.838;37.184;2022-11-15T01:36:44;99651.72;;;-1.77;39.93
65534;BME280;53640;55.838;37.184;2022-11-15T01:39:28;99698.09;;;-1.50;39.90
65534;BME280;53640;55.838;37.184;2022-11-15T01:42:13;99704.53;;;-1.53;40.05
65534;BME280;53640;55.838;37.184;2022-11-15T01:44:59;99748.94;;;-1.24;40.54
65534;BME280;53640;55.838;37.184;2022-11-15T01:47:48;99745.28;;;-1.33;40.59
65534;BME280;53640;55.838;37.184;2022-11-15T01:50:38;99758.03;;;-1.27;40.42
65534;BME280;53640;55.838;37.184;2022-11-15T01:53:24;99727.63;;;-1.44;40.95
65534;BME280;53640;55.838;37.184;2022-11-15T01:56:13;99706.34;;;-1.53;40.55
65534;BME280;53640;55.838;37.184;2022-11-15T01:59:03;99742.19;;;-1.38;40.58
65534;BME280;53640;55.838;37.184;2022-11-15T02:01:48;99645.59;;;-1.98;40.97
65534;BME280;53640;55.838;37.184;2022-11-15T02:04:40;99691.50;;;-1.77;40.84
65534;BME280;53640;55.838;37.184;2022-11-15T02:07:25;99676.06;;;-1.93;40.81
65534;BME280;53640;55.838;37.184;2022-11-15T02:10:16;99755.16;;;-1.45;41.29
65534;BME280;53640;55.838;37.184;2022-11-15T02:13:02;99683.38;;;-1.85;41.00
65534;BME280;53640;55.838;37.184;2022-11-15T02:19:02;99685.25;;;-1.76;41.15
65534;BME280;53640;55.838;37.184;2022-11-15T02:22:37;99702.94;;;-1.65;41.31
65534;BME280;53640;55.838;37.184;2022-11-15T02:25:37;99704.13;;;-1.69;41.09
65534;BME280;53640;55.838;37.184;2022-11-15T02:32:29;99665.66;;;-2.05;41.33
65534;BME280;53640;55.838;37.184;2022-11-15T02:40:44;99725.31;;;-1.79;41.44
65534;BME280;53640;55.838;37.184;2022-11-15T02:43:47;99723.56;;;-1.69;41.72
65534;BME280;53640;55.838;37.184;2022-11-15T02:46:46;99668.91;;;-2.02;41.83
65534;BME280;53640;55.838;37.184;2022-11-15T02:49:54;99716.31;;;-1.67;41.68
65534;BME280;53640;55.838;37.184;2022-11-15T02:52:43;99690.00;;;-1.79;41.62
65534;BME280;53640;55.838;37.184;2022-11-15T02:55:37;99692.00;;;-1.72;41.49
65534;BME280;53640;55.838;37.184;2022-11-15T03:01:30;99702.94;;;-1.65;41.58
65534;BME280;53640;55.838;37.184;2022-11-15T03:10:29;99663.84;;;-1.84;41.41
65534;BME280;53640;55.838;37.184;2022-11-15T03:16:49;99683.47;;;-1.66;41.85
65534;BME280;53640;55.838;37.184;2022-11-15T03:19:43;99644.41;;;-1.85;41.62
65534;BME280;53640;55.838;37.184;2022-11-15T03:22:34;99665.28;;;-1.80;41.62
65534;BME280;53640;55.838;37.184;2022-11-15T03:25:23;99657.75;;;-1.75;41.88
65534;BME280;53640;55.838;37.184;2022-11-15T03:28:12;99665.19;;;-1.69;41.79
65534;BME280;53640;55.838;37.184;2022-11-15T03:30:58;99669.53;;;-1.68;41.74
65534;BME280;53640;55.838;37.184;2022-11-15T03:33:46;99597.94;;;-2.10;41.58
65534;BME280;53640;55.838;37.184;2022-11-15T03:36:32;99644.63;;;-1.76;41.80
65534;BME280;53640;55.838;37.184;2022-11-15T03:39:19;99601.75;;;-2.02;41.73
65534;BME280;53640;55.838;37.184;2022-11-15T03:42:20;99678.97;;;-1.54;41.43
65534;BME280;53640;55.838;37.184;2022-11-15T03:45:19;99620.69;;;-1.86;41.60
65534;BME280;53640;55.838;37.184;2022-11-15T03:48:20;99676.41;;;-1.55;42.00
65534;BME280;53640;55.838;37.184;2022-11-15T03:51:06;99581.63;;;-2.05;41.68
65534;BME280;53640;55.838;37.184;2022-11-15T03:53:51;99662.47;;;-1.57;41.27
65534;BME280;53640;55.838;37.184;2022-11-15T03:56:36;99662.47;;;-1.57;41.26
65534;BME280;53640;55.838;37.184;2022-11-15T03:59:21;99636.00;;;-1.69;41.13
65534;BME280;53640;55.838;37.184;2022-11-15T04:02:07;99651.94;;;-1.59;41.19
65534;BME280;53640;55.838;37.184;2022-11-15T04:04:52;99625.72;;;-1.83;40.85
65534;BME280;53640;55.838;37.184;2022-11-15T04:07:37;99611.31;;;-1.90;40.82
65534;BME280;53640;55.838;37.184;2022-11-15T04:10:22;99632.78;;;-1.72;40.85
65534;BME280;53640;55.838;37.184;2022-11-15T04:13:07;99613.69;;;-1.87;40.73
65534;BME280;53640;55.838;37.184;2022-11-15T04:15:51;99657.97;;;-1.57;40.57
65534;BME280;53640;55.838;37.184;2022-11-15T04:18:36;99624.34;;;-1.77;40.85
65534;BME280;53640;55.838;37.184;2022-11-15T04:21:24;99620.75;;;-1.76;40.61
65534;BME280;53640;55.838;37.184;2022-11-15T04:24:27;99615.69;;;-1.79;40.17
65534;BME280;53640;55.838;37.184;2022-11-15T04:27:12;99596.38;;;-1.91;40.60
65534;BME280;53640;55.838;37.184;2022-11-15T04:30:00;99637.28;;;-1.63;40.71
65534;BME280;53640;55.838;37.184;2022-11-15T04:32:45;99609.25;;;-1.77;40.57
65534;BME280;53640;55.838;37.184;2022-11-15T04:35:30;99623.69;;;-1.70;40.57
65534;BME280;53640;55.838;37.184;2022-11-15T04:38:15;99583.78;;;-1.89;40.50
65534;BME280;53640;55.838;37.184;2022-11-15T04:41:00;99616.44;;;-1.68;40.57
65534;BME280;53640;55.838;37.184;2022-11-15T04:43:45;99591.09;;;-1.81;40.37
65534;BME280;53640;55.838;37.184;2022-11-15T04:46:30;99599.38;;;-1.75;40.33
65534;BME280;53640;55.838;37.184;2022-11-15T04:49:15;99618.13;;;-1.67;40.38
65534;BME280;53640;55.838;37.184;2022-11-15T04:52:00;99630.31;;;-1.54;40.46
65534;BME280;53640;55.838;37.184;2022-11-15T04:54:45;99582.03;;;-1.79;40.63
65534;BME280;53640;55.838;37.184;2022-11-15T04:57:30;99631.03;;;-1.52;40.58
65534;BME280;53640;55.838;37.184;2022-11-15T05:00:16;99526.75;;;-2.14;40.44
65534;BME280;53640;55.838;37.184;2022-11-15T05:03:04;99603.50;;;-1.61;40.54
65534;BME280;53640;55.838;37.184;2022-11-15T05:06:07;99629.53;;;-1.45;40.23
65534;BME280;53640;55.838;37.184;2022-11-15T05:08:52;99582.63;;;-1.75;40.62
65534;BME280;53640;55.838;37.184;2022-11-15T05:11:37;99507.41;;;-2.26;40.72
65534;BME280;53640;55.838;37.184;2022-11-15T05:14:25;99586.28;;;-1.67;40.23
65534;BME280;53640;55.838;37.184;2022-11-15T05:17:10;99525.78;;;-2.03;40.07
65534;BME280;53640;55.838;37.184;2022-11-15T05:19:54;99623.25;;;-1.44;40.06
65534;BME280;53640;55.838;37.184;2022-11-15T05:22:42;99585.44;;;-1.67;40.33
65534;BME280;53640;55.838;37.184;2022-11-15T05:25:27;99610.38;;;-1.49;40.38
65534;BME280;53640;55.838;37.184;2022-11-15T05:28:13;99619.59;;;-1.43;40.46
65534;BME280;53640;55.838;37.184;2022-11-15T05:31:08;99572.31;;;-1.69;40.53
65534;BME280;53640;55.838;37.184;2022-11-15T05:33:55;99605.06;;;-1.49;40.47
65534;BME280;53640;55.838;37.184;2022-11-15T05:36:43;99604.91;;;-1.47;40.50
65534;BME280;53640;55.838;37.184;2022-11-15T05:39:29;99598.47;;;-1.54;40.44
65534;BME280;53640;55.838;37.184;2022-11-15T05:42:15;99593.31;;;-1.56;40.19
65534;BME280;53640;55.838;37.184;2022-11-15T05:45:03;99594.56;;;-1.50;40.24
65534;BME280;53640;55.838;37.184;2022-11-15T05:47:50;99517.47;;;-1.89;40.44
65534;BME280;53640;55.838;37.184;2022-11-15T05:50:38;99611.69;;;-1.33;40.45
65534;BME280;53640;55.838;37.184;2022-11-15T05:53:29;99607.22;;;-1.33;40.46
65534;BME280;53640;55.838;37.184;2022-11-15T05:56:14;99579.31;;;-1.58;40.61
65534;BME280;53640;55.838;37.184;2022-11-15T05:58:59;99577.53;;;-1.57;40.47
65534;BME280;53640;55.838;37.184;2022-11-15T06:01:56;99578.94;;;-1.53;40.84
65534;BME280;53640;55.838;37.184;2022-11-15T06:04:41;99546.31;;;-1.75;40.75
65534;BME280;53640;55.838;37.184;2022-11-15T06:07:29;99470.06;;;-2.13;40.57
65534;BME280;53640;55.838;37.184;2022-11-15T06:10:14;99566.91;;;-1.57;40.55
65534;BME280;53640;55.838;37.184;2022-11-15T06:13:01;99474.53;;;-2.14;40.67
65534;BME280;53640;55.838;37.184;2022-11-15T06:15:47;99540.91;;;-1.64;40.87
65534;BME280;53640;55.838;37.184;2022-11-15T06:18:33;99461.13;;;-2.12;40.75
65534;BME280;53640;55.838;37.184;2022-11-15T06:21:19;99482.66;;;-2.05;40.71
65534;BME280;53640;55.838;37.184;2022-11-15T06:24:05;99558.25;;;-1.50;40.47
65534;BME280;53640;55.838;37.184;2022-11-15T06:26:50;99530.84;;;-1.60;40.35
65534;BME280;53640;55.838;37.184;2022-11-15T06:29:37;99497.41;;;-1.82;40.64
65534;BME280;53640;55.838;37.184;2022-11-15T06:32:22;99563.28;;;-1.47;40.39
65534;BME280;53640;55.838;37.184;2022-11-15T06:35:07;99524.69;;;-1.61;40.67
65534;BME280;53640;55.838;37.184;2022-11-15T06:37:52;99564.59;;;-1.31;40.28
65534;BME280;53640;55.838;37.184;2022-11-15T06:40:39;99464.97;;;-1.95;40.42
65534;BME280;53640;55.838;37.184;2022-11-15T06:43:26;99422.28;;;-2.23;40.48
65534;BME280;53640;55.838;37.184;2022-11-15T06:46:11;99457.84;;;-1.95;40.44
65534;BME280;53640;55.838;37.184;2022-11-15T06:48:56;99463.16;;;-1.85;40.58
65534;BME280;53640;55.838;37.184;2022-11-15T06:51:43;99445.84;;;-1.99;40.32
65534;BME280;53640;55.838;37.184;2022-11-15T06:54:28;99389.75;;;-2.35;40.53
65534;BME280;53640;55.838;37.184;2022-11-15T06:57:13;99417.44;;;-2.18;40.53
65534;BME280;53640;55.838;37.184;2022-11-15T06:59:58;99475.34;;;-1.83;40.69
65534;BME280;53640;55.838;37.184;2022-11-15T07:02:42;99547.28;;;-1.26;40.55
65534;BME280;53640;55.838;37.184;2022-11-15T07:05:28;99508.78;;;-1.51;40.36
65534;BME280;53640;55.838;37.184;2022-11-15T07:08:13;99518.44;;;-1.40;40.70
65534;BME280;53640;55.838;37.184;2022-11-15T07:10:59;99492.03;;;-1.51;40.57
65534;BME280;53640;55.838;37.184;2022-11-15T07:13:45;99539.44;;;-1.18;40.43
65534;BME280;53640;55.838;37.184;2022-11-15T07:16:31;99428.00;;;-1.87;40.31
65534;BME280;53640;55.838;37.184;2022-11-15T07:19:16;99512.19;;;-1.29;40.34
65534;BME280;53640;55.838;37.184;2022-11-15T07:22:01;99506.59;;;-1.26;40.29
65534;BME280;53640;55.838;37.184;2022-11-15T07:24:45;99502.97;;;-1.25;40.37
65534;BME280;53640;55.838;37.184;2022-11-15T07:27:30;99509.69;;;-1.12;40.29
65534;BME280;53640;55.838;37.184;2022-11-15T07:30:17;99509.84;;;-1.03;40.44
65534;BME280;53640;55.838;37.184;2022-11-15T07:33:02;99503.53;;;-1.02;40.48
65534;BME280;53640;55.838;37.184;2022-11-15T07:35:47;99503.81;;;-0.96;40.66
65534;BME280;53640;55.838;37.184;2022-11-15T07:38:35;99477.66;;;-1.10;39.97
65534;BME280;53640;55.838;37.184;2022-11-15T07:41:23;99453.91;;;-1.12;40.19
65534;BME280;53640;55.838;37.184;2022-11-15T07:44:08;99503.25;;;-0.80;39.84
65534;BME280;53640;55.838;37.184;2022-11-15T07:46:53;99481.69;;;-0.87;40.02
65534;BME280;53640;55.838;37.184;2022-11-15T07:49:39;99476.38;;;-0.87;39.82
65534;BME280;53640;55.838;37.184;2022-11-15T07:52:25;99500.44;;;-0.69;39.31
65534;BME280;53640;55.838;37.184;2022-11-15T07:55:10;99443.97;;;-0.90;39.88
65534;BME280;53640;55.838;37.184;2022-11-15T07:58:03;99501.09;;;-0.47;39.78
65534;BME280;53640;55.838;37.184;2022-11-15T08:00:49;99451.75;;;-0.59;39.81
65534;BME280;53640;55.838;37.184;2022-11-15T08:03:33;99489.03;;;-0.32;38.07
65534;BME280;53640;55.838;37.184;2022-11-15T08:06:18;99477.13;;;-0.38;38.23
65534;BME280;53640;55.838;37.184;2022-11-15T08:09:03;99443.47;;;-0.56;38.48
65534;BME280;53640;55.838;37.184;2022-11-15T08:11:48;99474.91;;;-0.32;38.75
65534;BME280;53640;55.838;37.184;2022-11-15T08:14:33;99454.50;;;-0.51;38.61
65534;BME280;53640;55.838;37.184;2022-11-15T08:17:18;99452.13;;;-0.45;38.80
65534;BME280;53640;55.838;37.184;2022-11-15T08:20:03;99453.25;;;-0.47;38.55
65534;BME280;53640;55.838;37.184;2022-11-15T08:22:47;99448.47;;;-0.44;38.54
65534;BME280;53640;55.838;37.184;2022-11-15T08:25:34;99437.56;;;-0.50;38.88
65534;BME280;53640;55.838;37.184;2022-11-15T08:28:19;99375.28;;;-0.85;38.58
65534;BME280;53640;55.838;37.184;2022-11-15T08:31:04;99428.06;;;-0.53;38.84
65534;BME280;53640;55.838;37.184;2022-11-15T08:33:49;99461.41;;;-0.21;38.69
65534;BME280;53640;55.838;37.184;2022-11-15T08:36:34;99424.81;;;-0.37;38.97
65534;BME280;53640;55.838;37.184;2022-11-15T08:39:19;99458.69;;;-0.12;38.85
65534;BME280;53640;55.838;37.184;2022-11-15T08:42:03;99422.53;;;-0.32;38.77
65534;BME280;53640;55.838;37.184;2022-11-15T08:44:48;99409.81;;;-0.38;38.66
65534;BME280;53640;55.838;37.184;2022-11-15T08:47:33;99446.00;;;-0.18;38.69
65534;BME280;53640;55.838;37.184;2022-11-15T08:50:18;99415.28;;;-0.40;38.45
65534;BME280;53640;55.838;37.184;2022-11-15T08:53:05;99411.09;;;-0.42;38.55
65534;BME280;53640;55.838;37.184;2022-11-15T08:55:51;99426.75;;;-0.39;38.58
65534;BME280;53640;55.838;37.184;2022-11-15T08:58:36;99454.84;;;-0.27;38.84
65534;BME280;53640;55.838;37.184;2022-11-15T09:01:21;99332.25;;;-0.98;38.57
65534;BME280;53640;55.838;37.184;2022-11-15T09:04:06;99405.41;;;-0.57;38.99
65534;BME280;53640;55.838;37.184;2022-11-15T09:06:54;99425.38;;;-0.43;38.90
65534;BME280;53640;55.838;37.184;2022-11-15T09:09:39;99427.34;;;-0.45;38.91
65534;BME280;53640;55.838;37.184;2022-11-15T09:12:24;99363.38;;;-0.81;38.91
65534;BME280;53640;55.838;37.184;2022-11-15T09:15:12;99416.16;;;-0.49;39.09
65534;BME280;53640;55.838;37.184;2022-11-15T09:17:58;99385.47;;;-0.71;39.29
65534;BME280;53640;55.838;37.184;2022-11-15T09:20:43;99351.38;;;-0.95;39.80
65534;BME280;53640;55.838;37.184;2022-11-15T09:23:28;99422.63;;;-0.51;39.38
65534;BME280;53640;55.838;37.184;2022-11-15T09:26:13;99395.94;;;-0.69;39.75
65534;BME280;53640;55.838;37.184;2022-11-15T09:28:59;99270.47;;;-1.57;39.80
65534;BME280;53640;55.838;37.184;2022-11-15T09:31:46;99359.13;;;-1.01;40.14
65534;BME280;53640;55.838;37.184;2022-11-15T09:34:31;99315.97;;;-1.32;40.06
65534;BME280;53640;55.838;37.184;2022-11-15T09:37:16;99323.81;;;-1.31;40.08
65534;BME280;53640;55.838;37.184;2022-11-15T09:40:02;99349.34;;;-1.11;40.47
65534;BME280;53640;55.838;37.184;2022-11-15T09:49:14;99358.69;;;-1.06;40.17
65534;BME280;53640;55.838;37.184;2022-11-15T09:52:02;99380.50;;;-0.93;40.69
65534;BME280;53640;55.838;37.184;2022-11-15T09:54:35;99394.44;;;-0.81;40.78
65534;BME280;53640;55.838;37.184;2022-11-15T09:57:18;99342.75;;;-1.06;40.93
65534;BME280;53640;55.838;37.184;2022-11-15T10:02:29;99401.09;;;-0.68;40.55
65534;BME280;53640;55.838;37.184;2022-11-15T10:05:02;99402.50;;;-0.64;40.69
65534;BME280;53640;55.838;37.184;2022-11-15T10:07:55;99389.63;;;-0.58;40.72
65534;BME280;53640;55.838;37.184;2022-11-15T10:10:41;99286.75;;;-1.23;40.78
65534;BME280;53640;55.838;37.184;2022-11-15T10:13:36;99397.75;;;-0.60;40.53
65534;BME280;53640;55.838;37.184;2022-11-15T10:16:36;99395.09;;;-0.60;40.71
65534;BME280;53640;55.838;37.184;2022-11-15T10:19:21;99387.94;;;-0.59;40.52
65534;BME280;53640;55.838;37.184;2022-11-15T10:24:28;99334.81;;;-0.79;40.87
65534;BME280;53640;55.838;37.184;2022-11-15T10:26:55;99302.72;;;-0.95;40.65
65534;BME280;53640;55.838;37.184;2022-11-15T10:29:24;99294.50;;;-1.02;40.73
65534;BME280;53640;55.838;37.184;2022-11-15T10:31:54;99318.38;;;-0.92;41.01
65534;BME280;53640;55.838;37.184;2022-11-15T10:34:25;99296.16;;;-0.91;40.86
65534;BME280;53640;55.838;37.184;2022-11-15T10:36:57;99299.06;;;-0.84;41.04
65534;BME280;53640;55.838;37.184;2022-11-15T10:39:25;99271.28;;;-1.00;40.64
65534;BME280;53640;55.838;37.184;2022-11-15T10:41:51;99226.50;;;-1.22;40.87
65534;BME280;53640;55.838;37.184;2022-11-15T10:49:30;99240.44;;;-1.11;40.99
65534;BME280;53640;55.838;37.184;2022-11-15T10:52:23;99333.63;;;-0.57;41.47
65534;BME280;53640;55.838;37.184;2022-11-15T10:57:29;99177.03;;;-1.61;42.15
65534;BME280;53640;55.838;37.184;2022-11-15T11:02:32;99326.16;;;-0.71;42.44
65534;BME280;53640;55.838;37.184;2022-11-15T11:08:27;99260.69;;;-1.10;42.49
65534;BME280;53640;55.838;37.184;2022-11-15T11:11:01;99250.22;;;-1.11;42.82
65534;BME280;53640;55.838;37.184;2022-11-15T11:13:59;99310.22;;;-0.71;42.92
65534;BME280;53640;55.838;37.184;2022-11-15T11:37:56;99219.78;;;-1.64;44.57
65534;BME280;53640;55.838;37.184;2022-11-15T11:40:34;99275.13;;;-1.22;44.89
65534;BME280;53640;55.838;37.184;2022-11-15T11:43:21;99293.66;;;-1.02;45.13
65534;BME280;53640;55.838;37.184;2022-11-15T11:49:06;99209.16;;;-1.64;45.78
65534;BME280;53640;55.838;37.184;2022-11-15T11:51:42;99149.34;;;-1.95;46.54
65534;BME280;53640;55.838;37.184;2022-11-15T11:54:32;99284.06;;;-1.13;46.88
65534;BME280;53640;55.838;37.184;2022-11-15T11:57:12;99239.56;;;-1.48;46.52
65534;BME280;53640;55.838;37.184;2022-11-15T11:59:51;99278.91;;;-1.15;46.94
65534;BME280;53640;55.838;37.184;2022-11-15T12:02:38;99250.41;;;-1.32;47.07
65534;BME280;53640;55.838;37.184;2022-11-15T12:05:15;99267.34;;;-1.23;47.31
65534;BME280;53640;55.838;37.184;2022-11-15T12:07:47;99258.91;;;-1.19;47.52
65534;BME280;53640;55.838;37.184;2022-11-15T12:10:18;99261.56;;;-1.19;47.46
65534;BME280;53640;55.838;37.184;2022-11-15T12:15:25;99218.44;;;-1.40;49.12
65534;BME280;53640;55.838;37.184;2022-11-15T12:17:55;99214.03;;;-1.49;49.21
65534;BME280;53640;55.838;37.184;2022-11-15T12:20:25;99243.59;;;-1.35;49.22
65534;BME280;53640;55.838;37.184;2022-11-15T12:23:13;99243.31;;;-1.31;49.53
65534;BME280;53640;55.838;37.184;2022-11-15T12:25:46;99249.47;;;-1.31;49.90
65534;BME280;53640;55.838;37.184;2022-11-15T12:32:36;99120.44;;;-2.08;50.06
65534;BME280;53640;55.838;37.184;2022-11-15T12:35:23;99122.94;;;-1.97;50.17
65534;BME280;53640;55.838;37.184;2022-11-15T12:37:52;99127.81;;;-1.92;50.27
65534;BME280;53640;55.838;37.184;2022-11-15T12:40:36;99143.06;;;-1.94;50.80
65534;BME280;53640;55.838;37.184;2022-11-15T12:45:43;99176.50;;;-1.64;50.75
65534;BME280;53640;55.838;37.184;2022-11-15T12:51:01;99167.25;;;-1.70;51.82
65534;BME280;53640;55.838;37.184;2022-11-15T12:53:30;99193.34;;;-1.55;51.60
65534;BME280;53640;55.838;37.184;2022-11-15T13:01:07;99182.78;;;-1.75;52.20
65534;BME280;53640;55.838;37.184;2022-11-15T13:03:34;99151.69;;;-1.92;52.36
65534;BME280;53640;55.838;37.184;2022-11-15T13:06:03;99147.94;;;-1.99;52.33
65534;BME280;53640;55.838;37.184;2022-11-15T13:08:41;99111.66;;;-2.18;52.55
65534;BME280;53640;55.838;37.184;2022-11-15T13:11:48;99186.16;;;-1.73;52.73
65534;BME280;53640;55.838;37.184;2022-11-15T13:19:51;99159.47;;;-1.81;52.62
65534;BME280;53640;55.838;37.184;2022-11-15T13:22:19;99161.00;;;-1.78;52.86
65534;BME280;53640;55.838;37.184;2022-11-15T13:33:26;99143.31;;;-1.97;52.82
65534;BME280;53640;55.838;37.184;2022-11-15T13:36:06;99127.56;;;-2.09;53.65
65534;BME280;53640;55.838;37.184;2022-11-15T13:38:35;99154.09;;;-1.99;53.58
65534;BME280;53640;55.838;37.184;2022-11-15T13:41:23;99143.75;;;-2.02;53.56
65534;BME280;53640;55.838;37.184;2022-11-15T13:43:51;99152.28;;;-1.98;53.40
65534;BME280;53640;55.838;37.184;2022-11-15T13:46:20;99106.97;;;-2.24;53.98
65534;BME280;53640;55.838;37.184;2022-11-15T13:49:08;99146.53;;;-2.03;54.81
65534;BME280;53640;55.838;37.184;2022-11-15T13:56:41;99139.28;;;-2.11;54.13
65534;BME280;53640;55.838;37.184;2022-11-15T13:59:43;99130.22;;;-2.18;55.02
65534;BME280;53640;55.838;37.184;2022-11-15T14:02:16;99124.94;;;-2.18;54.83
65534;BME280;53640;55.838;37.184;2022-11-15T14:04:51;99128.72;;;-2.21;54.83
65534;BME280;53640;55.838;37.184;2022-11-15T14:07:25;99036.72;;;-2.77;54.92
65534;BME280;53640;55.838;37.184;2022-11-15T14:09:52;99124.25;;;-2.20;55.27
65534;BME280;53640;55.838;37.184;2022-11-15T14:12:24;99072.41;;;-2.62;55.54
65534;BME280;53640;55.838;37.184;2022-11-15T14:14:51;99122.84;;;-2.34;55.70
65534;BME280;53640;55.838;37.184;2022-11-15T14:17:34;99110.03;;;-2.39;55.46
65534;BME280;53640;55.838;37.184;2022-11-15T14:20:01;99123.00;;;-2.45;56.01
65534;BME280;53640;55.838;37.184;2022-11-15T14:22:29;99088.97;;;-2.60;55.97
65534;BME280;53640;55.838;37.184;2022-11-15T14:25:14;99127.47;;;-2.46;56.64
65534;BME280;53640;55.838;37.184;2022-11-15T14:30:59;98973.72;;;-3.41;56.83
65534;BME280;53640;55.838;37.184;2022-11-15T14:33:36;99042.16;;;-3.08;57.19
65534;BME280;53640;55.838;37.184;2022-11-15T14:36:15;99063.75;;;-3.02;57.95
65534;BME280;53640;55.838;37.184;2022-11-15T14:38:42;99021.81;;;-3.26;57.61
65534;BME280;53640;55.838;37.184;2022-11-15T14:41:22;99034.06;;;-3.16;57.72
65534;BME280;53640;55.838;37.184;2022-11-15T14:43:51;98978.31;;;-3.53;57.36
65534;BME280;53640;55.838;37.184;2022-11-15T14:46:45;99090.25;;;-2.73;57.49
65534;BME280;53640;55.838;37.184;2022-11-15T14:49:18;99011.91;;;-3.24;57.12
65534;BME280;53640;55.838;37.184;2022-11-15T14:51:45;99063.88;;;-2.94;57.96
65534;BME280;53640;55.838;37.184;2022-11-15T14:54:15;99014.53;;;-3.24;57.86
65534;BME280;53640;55.838;37.184;2022-11-15T14:56:48;99101.53;;;-2.71;57.71
65534;BME280;53640;55.838;37.184;2022-11-15T14:59:20;98972.47;;;-3.47;57.32
65534;BME280;53640;55.838;37.184;2022-11-15T15:01:48;99032.69;;;-3.00;57.97
65534;BME280;53640;55.838;37.184;2022-11-15T15:04:15;99025.69;;;-3.01;57.93
65534;BME280;53640;55.838;37.184;2022-11-15T15:06:57;98948.81;;;-3.48;57.66
65534;BME280;53640;55.838;37.184;2022-11-15T15:09:38;98956.47;;;-3.36;57.75
65534;BME280;53640;55.838;37.184;2022-11-15T15:12:22;99034.91;;;-2.86;57.46
65534;BME280;53640;55.838;37.184;2022-11-15T15:14:50;98965.81;;;-3.22;57.24
65534;BME280;53640;55.838;37.184;2022-11-15T15:17:17;98958.84;;;-3.23;57.50
65534;BME280;53640;55.838;37.184;2022-11-15T15:19:44;98970.94;;;-3.11;57.15
65534;BME280;53640;55.838;37.184;2022-11-15T15:22:16;98930.69;;;-3.24;57.66
65534;BME280;53640;55.838;37.184;2022-11-15T15:24:44;98994.22;;;-2.85;57.51
65534;BME280;53640;55.838;37.184;2022-11-15T15:27:11;98905.22;;;-3.44;57.78
65534;BME280;53640;55.838;37.184;2022-11-15T15:29:40;98940.31;;;-3.23;57.49
65534;BME280;53640;55.838;37.184;2022-11-15T15:32:15;98975.66;;;-3.05;58.38
65534;BME280;53640;55.838;37.184;2022-11-15T15:34:45;98915.38;;;-3.30;57.91
65534;BME280;53640;55.838;37.184;2022-11-15T15:39:55;98951.84;;;-3.05;58.16
65534;BME280;53640;55.838;37.184;2022-11-15T15:42:23;99038.09;;;-2.53;58.37
65534;BME280;53640;55.838;37.184;2022-11-15T15:44:50;99034.75;;;-2.55;58.48
65534;BME280;53640;55.838;37.184;2022-11-15T15:47:20;98908.97;;;-3.27;58.34
65534;BME280;53640;55.838;37.184;2022-11-15T15:49:47;99018.59;;;-2.62;58.69
65534;BME280;53640;55.838;37.184;2022-11-15T15:52:16;98916.50;;;-3.23;58.58
65534;BME280;53640;55.838;37.184;2022-11-15T15:54:45;99024.44;;;-2.59;58.52
65534;BME280;53640;55.838;37.184;2022-11-15T15:57:13;98917.72;;;-3.17;58.47
65534;BME280;53640;55.838;37.184;2022-11-15T15:59:40;98960.63;;;-2.94;58.45
65534;BME280;53640;55.838;37.184;2022-11-15T16:02:14;98963.53;;;-2.97;58.42
65534;BME280;53640;55.838;37.184;2022-11-15T16:04:42;98997.13;;;-2.69;58.87
65534;BME280;53640;55.838;37.184;2022-11-15T16:07:16;98923.84;;;-3.17;58.65